sensor_id;sensor_type;location;lat;lon;timestamp;P1;durP1;ratioP1;P2;durP2;ratioP2
53931;SDS011;39844;52.496;13.482;2022-09-20T00:03:29;2.17;;;1.00;;
53931;SDS011;39844;52.496;13.482;2022-09-20T00:05:54;0.70;;;0.70;;
53931;SDS011;39844;52.496;13.482;2022-09-20T00:08:24;0.80;;;0.73;;
53931;SDS011;39844;52.496;13.482;2022-09-20T00:10:49;0.80;;;0.80;;
53931;SDS011;39844;52.496;13.482;2022-09-20T00:13:14;1.30;;;0.77;;
53931;SDS011;39844;52.496;13.482;2022-09-20T00:15:43;0.80;;;0.80;;
53931;SDS011;39844;52.496;13.482;2022-09-20T00:18:10;1.27;;;0.93;;
53931;SDS011;39844;52.496;13.482;2022-09-20T00:20:43;1.70;;;0.80;;
53931;SDS011;39844;52.496;13.482;2022-09-20T00:23:10;0.70;;;0.70;;
53931;SDS011;39844;52.496;13.482;2022-09-20T00:25:35;0.73;;;0.73;;
53931;SDS011;39844;52.496;13.482;2022-09-20T00:28:00;0.87;;;0.87;;
53931;SDS011;39844;52.496;13.482;2022-09-20T00:30:26;0.80;;;0.80;;
53931;SDS011;39844;52.496;13.482;2022-09-20T00:32:51;1.07;;;0.80;;
53931;SDS011;39844;52.496;13.482;2022-09-20T00:35:16;0.87;;;0.87;;
53931;SDS011;39844;52.496;13.482;2022-09-20T00:37:42;2.63;;;0.90;;
53931;SDS011;39844;52.496;13.482;2022-09-20T00:40:09;1.17;;;1.17;;
53931;SDS011;39844;52.496;13.482;2022-09-20T00:42:37;3.50;;;0.87;;
53931;SDS011;39844;52.496;13.482;2022-09-20T00:47:39;0.70;;;0.70;;
53931;SDS011;39844;52.496;13.482;2022-09-20T00:52:59;0.97;;;0.97;;
53931;SDS011;39844;52.496;13.482;2022-09-20T00:55:29;1.00;;;1.00;;
53931;SDS011;39844;52.496;13.482;2022-09-20T00:57:55;0.93;;;0.93;;
53931;SDS011;39844;52.496;13.482;2022-09-20T01:00:22;1.77;;;0.93;;
53931;SDS011;39844;52.496;13.482;2022-09-20T01:02:49;2.73;;;1.20;;
53931;SDS011;39844;52.496;13.482;2022-09-20T01:05:17;1.93;;;1.20;;
53931;SDS011;39844;52.496;13.482;2022-09-20T01:07:43;0.97;;;0.90;;
53931;SDS011;39844;52.496;13.482;2022-09-20T01:10:11;1.97;;;0.87;;
53931;SDS011;39844;52.496;13.482;2022-09-20T01:12:37;3.47;;;1.00;;
53931;SDS011;39844;52.496;13.482;2022-09-20T01:15:05;1.43;;;1.10;;
53931;SDS011;39844;52.496;13.482;2022-09-20T01:17:34;0.70;;;0.70;;
53931;SDS011;39844;52.496;13.482;2022-09-20T01:28:11;0.93;;;0.93;;
53931;SDS011;39844;52.496;13.482;2022-09-20T01:30:38;0.90;;;0.90;;
53931;SDS011;39844;52.496;13.482;2022-09-20T01:33:29;0.67;;;0.67;;
53931;SDS011;39844;52.496;13.482;2022-09-20T01:36:04;0.70;;;0.70;;
53931;SDS011;39844;52.496;13.482;2022-09-20T01:38:38;0.80;;;0.60;;
53931;SDS011;39844;52.496;13.482;2022-09-20T01:41:14;0.73;;;0.73;;
53931;SDS011;39844;52.496;13.482;2022-09-20T01:46:41;0.97;;;0.97;;
53931;SDS011;39844;52.496;13.482;2022-09-20T01:57:52;0.90;;;0.90;;
53931;SDS011;39844;52.496;13.482;2022-09-20T02:11:04;0.53;;;0.53;;
53931;SDS011;39844;52.496;13.482;2022-09-20T02:19:06;0.70;;;0.70;;
53931;SDS011;39844;52.496;13.482;2022-09-20T02:27:21;0.90;;;0.90;;
53931;SDS011;39844;52.496;13.482;2022-09-20T02:35:46;0.80;;;0.80;;
53931;SDS011;39844;52.496;13.482;2022-09-20T02:38:49;0.70;;;0.70;;
53931;SDS011;39844;52.496;13.482;2022-09-20T02:44:41;0.97;;;0.80;;
53931;SDS011;39844;52.496;13.482;2022-09-20T02:50:20;0.63;;;0.63;;
53931;SDS011;39844;52.496;13.482;2022-09-20T02:58:58;0.80;;;0.80;;
53931;SDS011;39844;52.496;13.482;2022-09-20T03:07:33;0.70;;;0.70;;
53931;SDS011;39844;52.496;13.482;2022-09-20T03:18:18;2.00;;;0.77;;
53931;SDS011;39844;52.496;13.482;2022-09-20T03:24:07;0.70;;;0.70;;
53931;SDS011;39844;52.496;13.482;2022-09-20T03:35:49;0.83;;;0.83;;
53931;SDS011;39844;52.496;13.482;2022-09-20T03:38:33;0.90;;;0.90;;
53931;SDS011;39844;52.496;13.482;2022-09-20T03:41:29;0.70;;;0.70;;
53931;SDS011;39844;52.496;13.482;2022-09-20T03:44:03;0.70;;;0.70;;
53931;SDS011;39844;52.496;13.482;2022-09-20T03:57:51;0.90;;;0.90;;
53931;SDS011;39844;52.496;13.482;2022-09-20T04:03:19;0.80;;;0.80;;
53931;SDS011;39844;52.496;13.482;2022-09-20T04:08:30;0.97;;;0.97;;
53931;SDS011;39844;52.496;13.482;2022-09-20T04:14:28;0.90;;;0.90;;
53931;SDS011;39844;52.496;13.482;2022-09-20T04:17:05;0.90;;;0.90;;
53931;SDS011;39844;52.496;13.482;2022-09-20T04:19:53;0.70;;;0.70;;
53931;SDS011;39844;52.496;13.482;2022-09-20T04:22:29;0.90;;;0.90;;
53931;SDS011;39844;52.496;13.482;2022-09-20T04:25:05;0.90;;;0.90;;
53931;SDS011;39844;52.496;13.482;2022-09-20T04:27:51;0.70;;;0.70;;
53931;SDS011;39844;52.496;13.482;2022-09-20T04:30:22;2.47;;;0.80;;
53931;SDS011;39844;52.496;13.482;2022-09-20T04:38:30;0.97;;;0.90;;
53931;SDS011;39844;52.496;13.482;2022-09-20T04:46:53;1.43;;;1.00;;
53931;SDS011;39844;52.496;13.482;2022-09-20T05:01:31;1.60;;;1.00;;
53931;SDS011;39844;52.496;13.482;2022-09-20T05:21:51;1.50;;;1.13;;
53931;SDS011;39844;52.496;13.482;2022-09-20T05:27:49;0.90;;;0.90;;
53931;SDS011;39844;52.496;13.482;2022-09-20T05:30:34;0.70;;;0.70;;
53931;SDS011;39844;52.496;13.482;2022-09-20T05:35:59;0.87;;;0.87;;
53931;SDS011;39844;52.496;13.482;2022-09-20T05:41:36;0.80;;;0.80;;
53931;SDS011;39844;52.496;13.482;2022-09-20T05:49:45;1.00;;;1.00;;
53931;SDS011;39844;52.496;13.482;2022-09-20T06:00:43;0.87;;;0.87;;
53931;SDS011;39844;52.496;13.482;2022-09-20T06:03:33;2.17;;;1.20;;
53931;SDS011;39844;52.496;13.482;2022-09-20T06:06:27;0.83;;;0.83;;
53931;SDS011;39844;52.496;13.482;2022-09-20T06:11:47;0.70;;;0.70;;
53931;SDS011;39844;52.496;13.482;2022-09-20T06:14:30;2.97;;;1.30;;
53931;SDS011;39844;52.496;13.482;2022-09-20T06:20:08;1.57;;;1.07;;
53931;SDS011;39844;52.496;13.482;2022-09-20T06:22:38;0.83;;;0.83;;
53931;SDS011;39844;52.496;13.482;2022-09-20T06:27:40;1.00;;;1.00;;
53931;SDS011;39844;52.496;13.482;2022-09-20T06:30:14;0.60;;;0.60;;
53931;SDS011;39844;52.496;13.482;2022-09-20T06:32:52;0.70;;;0.70;;
53931;SDS011;39844;52.496;13.482;2022-09-20T06:35:18;1.33;;;0.90;;
53931;SDS011;39844;52.496;13.482;2022-09-20T06:37:49;0.60;;;0.60;;
53931;SDS011;39844;52.496;13.482;2022-09-20T06:40:38;0.80;;;0.80;;
53931;SDS011;39844;52.496;13.482;2022-09-20T06:43:43;0.90;;;0.83;;
53931;SDS011;39844;52.496;13.482;2022-09-20T06:46:09;1.03;;;1.03;;
53931;SDS011;39844;52.496;13.482;2022-09-20T06:48:36;1.10;;;1.00;;
53931;SDS011;39844;52.496;13.482;2022-09-20T06:51:04;1.70;;;1.17;;
53931;SDS011;39844;52.496;13.482;2022-09-20T06:53:31;4.93;;;1.27;;
53931;SDS011;39844;52.496;13.482;2022-09-20T06:55:59;2.20;;;1.10;;
53931;SDS011;39844;52.496;13.482;2022-09-20T06:58:25;1.17;;;0.77;;
53931;SDS011;39844;52.496;13.482;2022-09-20T07:00:51;1.20;;;0.90;;
53931;SDS011;39844;52.496;13.482;2022-09-20T07:03:17;4.13;;;1.03;;
53931;SDS011;39844;52.496;13.482;2022-09-20T07:05:44;0.80;;;0.80;;
53931;SDS011;39844;52.496;13.482;2022-09-20T07:08:10;1.40;;;1.10;;
53931;SDS011;39844;52.496;13.482;2022-09-20T07:10:35;1.53;;;1.00;;
53931;SDS011;39844;52.496;13.482;2022-09-20T07:13:01;1.13;;;1.13;;
53931;SDS011;39844;52.496;13.482;2022-09-20T07:15:27;0.90;;;0.90;;
53931;SDS011;39844;52.496;13.482;2022-09-20T07:17:54;1.00;;;1.00;;
53931;SDS011;39844;52.496;13.482;2022-09-20T07:20:20;1.37;;;1.17;;
53931;SDS011;39844;52.496;13.482;2022-09-20T07:22:45;1.03;;;1.03;;
53931;SDS011;39844;52.496;13.482;2022-09-20T07:25:12;0.73;;;0.73;;
53931;SDS011;39844;52.496;13.482;2022-09-20T07:27:37;1.03;;;0.90;;
53931;SDS011;39844;52.496;13.482;2022-09-20T07:30:04;1.30;;;1.20;;
53931;SDS011;39844;52.496;13.482;2022-09-20T07:32:30;1.00;;;1.00;;
53931;SDS011;39844;52.496;13.482;2022-09-20T07:34:55;1.00;;;1.00;;
53931;SDS011;39844;52.496;13.482;2022-09-20T07:37:21;0.90;;;0.90;;
53931;SDS011;39844;52.496;13.482;2022-09-20T07:39:46;0.80;;;0.80;;
53931;SDS011;39844;52.496;13.482;2022-09-20T07:42:12;0.80;;;0.80;;
53931;SDS011;39844;52.496;13.482;2022-09-20T07:44:37;0.73;;;0.73;;
53931;SDS011;39844;52.496;13.482;2022-09-20T07:47:06;0.70;;;0.70;;
53931;SDS011;39844;52.496;13.482;2022-09-20T07:49:34;1.23;;;1.13;;
53931;SDS011;39844;52.496;13.482;2022-09-20T07:51:59;0.97;;;0.97;;
53931;SDS011;39844;52.496;13.482;2022-09-20T07:54:25;0.80;;;0.80;;
53931;SDS011;39844;52.496;13.482;2022-09-20T07:56:51;1.60;;;0.83;;
53931;SDS011;39844;52.496;13.482;2022-09-20T07:59:17;1.47;;;0.90;;
53931;SDS011;39844;52.496;13.482;2022-09-20T08:01:42;2.60;;;1.07;;
53931;SDS011;39844;52.496;13.482;2022-09-20T08:04:08;2.70;;;1.00;;
53931;SDS011;39844;52.496;13.482;2022-09-20T08:06:41;0.93;;;0.93;;
53931;SDS011;39844;52.496;13.482;2022-09-20T08:09:07;0.70;;;0.70;;
53931;SDS011;39844;52.496;13.482;2022-09-20T08:11:33;0.97;;;0.90;;
53931;SDS011;39844;52.496;13.482;2022-09-20T08:14:00;0.90;;;0.90;;
53931;SDS011;39844;52.496;13.482;2022-09-20T08:16:27;1.33;;;0.90;;
53931;SDS011;39844;52.496;13.482;2022-09-20T08:18:54;0.73;;;0.73;;
53931;SDS011;39844;52.496;13.482;2022-09-20T08:21:22;1.30;;;1.23;;
53931;SDS011;39844;52.496;13.482;2022-09-20T08:23:49;1.23;;;1.13;;
53931;SDS011;39844;52.496;13.482;2022-09-20T08:26:16;0.90;;;0.90;;
53931;SDS011;39844;52.496;13.482;2022-09-20T08:28:43;1.10;;;1.10;;
53931;SDS011;39844;52.496;13.482;2022-09-20T08:31:11;2.67;;;1.37;;
53931;SDS011;39844;52.496;13.482;2022-09-20T08:33:38;0.83;;;0.83;;
53931;SDS011;39844;52.496;13.482;2022-09-20T08:36:04;1.40;;;0.93;;
53931;SDS011;39844;52.496;13.482;2022-09-20T08:38:31;2.77;;;0.90;;
53931;SDS011;39844;52.496;13.482;2022-09-20T08:41:06;1.23;;;0.90;;
53931;SDS011;39844;52.496;13.482;2022-09-20T08:43:39;0.77;;;0.77;;
53931;SDS011;39844;52.496;13.482;2022-09-20T08:46:15;0.77;;;0.77;;
53931;SDS011;39844;52.496;13.482;2022-09-20T08:48:43;1.17;;;0.70;;
53931;SDS011;39844;52.496;13.482;2022-09-20T08:51:11;0.97;;;0.80;;
53931;SDS011;39844;52.496;13.482;2022-09-20T08:53:44;3.33;;;1.10;;
53931;SDS011;39844;52.496;13.482;2022-09-20T08:56:11;1.00;;;1.00;;
53931;SDS011;39844;52.496;13.482;2022-09-20T08:58:37;0.70;;;0.70;;
53931;SDS011;39844;52.496;13.482;2022-09-20T09:01:04;1.60;;;1.00;;
53931;SDS011;39844;52.496;13.482;2022-09-20T09:03:30;1.07;;;1.07;;
53931;SDS011;39844;52.496;13.482;2022-09-20T09:05:56;0.83;;;0.83;;
53931;SDS011;39844;52.496;13.482;2022-09-20T09:10:58;0.90;;;0.90;;
53931;SDS011;39844;52.496;13.482;2022-09-20T09:16:29;0.70;;;0.70;;
53931;SDS011;39844;52.496;13.482;2022-09-20T09:18:56;0.83;;;0.83;;
53931;SDS011;39844;52.496;13.482;2022-09-20T09:21:26;1.40;;;0.83;;
53931;SDS011;39844;52.496;13.482;2022-09-20T09:26:37;1.00;;;0.90;;
53931;SDS011;39844;52.496;13.482;2022-09-20T09:29:08;0.80;;;0.80;;
53931;SDS011;39844;52.496;13.482;2022-09-20T09:31:41;2.10;;;0.93;;
53931;SDS011;39844;52.496;13.482;2022-09-20T09:36:50;1.70;;;0.70;;
53931;SDS011;39844;52.496;13.482;2022-09-20T09:39:21;0.67;;;0.67;;
53931;SDS011;39844;52.496;13.482;2022-09-20T09:41:47;0.87;;;0.70;;
53931;SDS011;39844;52.496;13.482;2022-09-20T09:44:20;0.70;;;0.70;;
53931;SDS011;39844;52.496;13.482;2022-09-20T09:46:51;2.47;;;0.40;;
53931;SDS011;39844;52.496;13.482;2022-09-20T09:49:18;0.70;;;0.70;;
53931;SDS011;39844;52.496;13.482;2022-09-20T09:54:26;1.03;;;0.70;;
53931;SDS011;39844;52.496;13.482;2022-09-20T09:57:03;1.30;;;0.57;;
53931;SDS011;39844;52.496;13.482;2022-09-20T10:19:01;0.87;;;0.87;;
53931;SDS011;39844;52.496;13.482;2022-09-20T10:21:51;3.23;;;0.90;;
53931;SDS011;39844;52.496;13.482;2022-09-20T10:27:17;2.00;;;1.00;;
53931;SDS011;39844;52.496;13.482;2022-09-20T10:29:49;1.13;;;1.00;;
53931;SDS011;39844;52.496;13.482;2022-09-20T10:35:35;0.97;;;0.97;;
53931;SDS011;39844;52.496;13.482;2022-09-20T10:38:32;1.10;;;1.10;;
53931;SDS011;39844;52.496;13.482;2022-09-20T10:44:08;1.00;;;1.00;;
53931;SDS011;39844;52.496;13.482;2022-09-20T10:46:55;0.97;;;0.93;;
53931;SDS011;39844;52.496;13.482;2022-09-20T10:49:54;1.60;;;1.40;;
53931;SDS011;39844;52.496;13.482;2022-09-20T10:55:02;1.77;;;1.40;;
53931;SDS011;39844;52.496;13.482;2022-09-20T11:00:29;2.27;;;1.30;;
53931;SDS011;39844;52.496;13.482;2022-09-20T11:03:21;1.87;;;1.23;;
53931;SDS011;39844;52.496;13.482;2022-09-20T11:08:22;2.43;;;1.30;;
53931;SDS011;39844;52.496;13.482;2022-09-20T11:10:53;1.47;;;1.30;;
53931;SDS011;39844;52.496;13.482;2022-09-20T11:24:32;0.60;;;0.60;;
53931;SDS011;39844;52.496;13.482;2022-09-20T11:29:39;0.50;;;0.50;;
53931;SDS011;39844;52.496;13.482;2022-09-20T11:32:14;1.50;;;0.67;;
53931;SDS011;39844;52.496;13.482;2022-09-20T11:34:52;0.80;;;0.80;;
53931;SDS011;39844;52.496;13.482;2022-09-20T11:37:21;3.37;;;0.60;;
53931;SDS011;39844;52.496;13.482;2022-09-20T11:39:52;0.70;;;0.70;;
53931;SDS011;39844;52.496;13.482;2022-09-20T11:42:34;0.77;;;0.77;;
53931;SDS011;39844;52.496;13.482;2022-09-20T11:45:03;1.73;;;0.83;;
53931;SDS011;39844;52.496;13.482;2022-09-20T11:47:33;0.77;;;0.77;;
53931;SDS011;39844;52.496;13.482;2022-09-20T11:52:47;0.60;;;0.60;;
53931;SDS011;39844;52.496;13.482;2022-09-20T11:58:06;0.70;;;0.70;;
53931;SDS011;39844;52.496;13.482;2022-09-20T12:00:35;0.83;;;0.83;;
53931;SDS011;39844;52.496;13.482;2022-09-20T12:03:03;0.40;;;0.40;;
53931;SDS011;39844;52.496;13.482;2022-09-20T12:05:36;1.70;;;0.70;;
53931;SDS011;39844;52.496;13.482;2022-09-20T12:08:06;0.70;;;0.70;;
53931;SDS011;39844;52.496;13.482;2022-09-20T12:10:42;1.07;;;0.90;;
53931;SDS011;39844;52.496;13.482;2022-09-20T12:13:19;0.80;;;0.80;;
53931;SDS011;39844;52.496;13.482;2022-09-20T12:16:03;0.80;;;0.80;;
53931;SDS011;39844;52.496;13.482;2022-09-20T12:24:26;0.90;;;0.83;;
53931;SDS011;39844;52.496;13.482;2022-09-20T12:26:56;0.77;;;0.77;;
53931;SDS011;39844;52.496;13.482;2022-09-20T12:31:52;2.33;;;1.63;;
53931;SDS011;39844;52.496;13.482;2022-09-20T12:39:22;2.13;;;1.10;;
53931;SDS011;39844;52.496;13.482;2022-09-20T12:41:55;1.83;;;1.60;;
53931;SDS011;39844;52.496;13.482;2022-09-20T13:03:28;0.60;;;0.60;;
53931;SDS011;39844;52.496;13.482;2022-09-20T13:11:46;0.97;;;0.70;;
53931;SDS011;39844;52.496;13.482;2022-09-20T13:22:11;0.50;;;0.50;;
53931;SDS011;39844;52.496;13.482;2022-09-20T13:24:43;1.70;;;0.63;;
53931;SDS011;39844;52.496;13.482;2022-09-20T13:27:16;0.37;;;0.37;;
53931;SDS011;39844;52.496;13.482;2022-09-20T13:29:44;0.33;;;0.33;;
53931;SDS011;39844;52.496;13.482;2022-09-20T13:40:32;0.30;;;0.30;;
53931;SDS011;39844;52.496;13.482;2022-09-20T13:43:06;0.70;;;0.70;;
53931;SDS011;39844;52.496;13.482;2022-09-20T13:45:57;0.40;;;0.40;;
53931;SDS011;39844;52.496;13.482;2022-09-20T13:48:27;0.53;;;0.53;;
53931;SDS011;39844;52.496;13.482;2022-09-20T13:50:54;0.30;;;0.30;;
53931;SDS011;39844;52.496;13.482;2022-09-20T13:53:21;1.53;;;0.40;;
53931;SDS011;39844;52.496;13.482;2022-09-20T13:55:49;0.40;;;0.40;;
53931;SDS011;39844;52.496;13.482;2022-09-20T14:00:44;0.53;;;0.53;;
53931;SDS011;39844;52.496;13.482;2022-09-20T14:03:12;0.70;;;0.60;;
53931;SDS011;39844;52.496;13.482;2022-09-20T14:05:44;0.47;;;0.47;;
53931;SDS011;39844;52.496;13.482;2022-09-20T14:08:20;0.57;;;0.57;;
53931;SDS011;39844;52.496;13.482;2022-09-20T14:10:49;1.10;;;0.50;;
53931;SDS011;39844;52.496;13.482;2022-09-20T14:13:31;1.30;;;0.40;;
53931;SDS011;39844;52.496;13.482;2022-09-20T14:16:06;0.50;;;0.50;;
53931;SDS011;39844;52.496;13.482;2022-09-20T14:18:33;1.20;;;0.70;;
53931;SDS011;39844;52.496;13.482;2022-09-20T14:20:59;0.43;;;0.43;;
53931;SDS011;39844;52.496;13.482;2022-09-20T14:23:28;1.23;;;1.23;;
53931;SDS011;39844;52.496;13.482;2022-09-20T14:28:41;0.80;;;0.80;;
53931;SDS011;39844;52.496;13.482;2022-09-20T14:31:07;0.70;;;0.70;;
53931;SDS011;39844;52.496;13.482;2022-09-20T14:33:42;0.40;;;0.40;;
53931;SDS011;39844;52.496;13.482;2022-09-20T14:36:13;0.50;;;0.50;;
53931;SDS011;39844;52.496;13.482;2022-09-20T14:38:42;0.73;;;0.73;;
53931;SDS011;39844;52.496;13.482;2022-09-20T14:41:09;1.47;;;0.33;;
53931;SDS011;39844;52.496;13.482;2022-09-20T14:43:36;1.07;;;0.50;;
53931;SDS011;39844;52.496;13.482;2022-09-20T14:46:02;0.60;;;0.60;;
53931;SDS011;39844;52.496;13.482;2022-09-20T14:48:36;0.30;;;0.30;;
53931;SDS011;39844;52.496;13.482;2022-09-20T14:53:43;0.50;;;0.50;;
53931;SDS011;39844;52.496;13.482;2022-09-20T14:56:32;0.50;;;0.50;;
53931;SDS011;39844;52.496;13.482;2022-09-20T15:01:38;0.50;;;0.50;;
53931;SDS011;39844;52.496;13.482;2022-09-20T15:04:07;0.70;;;0.70;;
53931;SDS011;39844;52.496;13.482;2022-09-20T15:06:42;0.30;;;0.30;;
53931;SDS011;39844;52.496;13.482;2022-09-20T15:09:09;0.63;;;0.63;;
53931;SDS011;39844;52.496;13.482;2022-09-20T15:11:36;0.40;;;0.40;;
53931;SDS011;39844;52.496;13.482;2022-09-20T15:14:02;0.50;;;0.50;;
53931;SDS011;39844;52.496;13.482;2022-09-20T15:16:27;0.60;;;0.60;;
53931;SDS011;39844;52.496;13.482;2022-09-20T15:18:53;0.70;;;0.70;;
53931;SDS011;39844;52.496;13.482;2022-09-20T15:21:19;0.60;;;0.60;;
53931;SDS011;39844;52.496;13.482;2022-09-20T15:23:44;0.40;;;0.40;;
53931;SDS011;39844;52.496;13.482;2022-09-20T15:26:09;0.47;;;0.47;;
53931;SDS011;39844;52.496;13.482;2022-09-20T15:28:37;0.40;;;0.40;;
53931;SDS011;39844;52.496;13.482;2022-09-20T15:31:02;0.73;;;0.40;;
53931;SDS011;39844;52.496;13.482;2022-09-20T15:33:28;0.40;;;0.40;;
53931;SDS011;39844;52.496;13.482;2022-09-20T15:35:55;0.50;;;0.50;;
53931;SDS011;39844;52.496;13.482;2022-09-20T15:38:21;0.40;;;0.40;;
53931;SDS011;39844;52.496;13.482;2022-09-20T15:40:50;0.20;;;0.20;;
53931;SDS011;39844;52.496;13.482;2022-09-20T15:43:17;2.10;;;0.50;;
53931;SDS011;39844;52.496;13.482;2022-09-20T15:45:56;0.40;;;0.40;;
53931;SDS011;39844;52.496;13.482;2022-09-20T15:48:25;3.30;;;0.50;;
53931;SDS011;39844;52.496;13.482;2022-09-20T15:53:28;0.23;;;0.23;;
53931;SDS011;39844;52.496;13.482;2022-09-20T15:55:55;0.30;;;0.30;;
53931;SDS011;39844;52.496;13.482;2022-09-20T15:58:23;0.40;;;0.40;;
53931;SDS011;39844;52.496;13.482;2022-09-20T16:00:49;1.13;;;0.40;;
53931;SDS011;39844;52.496;13.482;2022-09-20T16:03:15;2.07;;;1.10;;
53931;SDS011;39844;52.496;13.482;2022-09-20T16:05:41;0.83;;;0.60;;
53931;SDS011;39844;52.496;13.482;2022-09-20T16:08:07;0.70;;;0.30;;
53931;SDS011;39844;52.496;13.482;2022-09-20T16:10:32;0.70;;;0.50;;
53931;SDS011;39844;52.496;13.482;2022-09-20T16:12:57;0.50;;;0.50;;
53931;SDS011;39844;52.496;13.482;2022-09-20T16:15:23;0.40;;;0.40;;
53931;SDS011;39844;52.496;13.482;2022-09-20T16:17:48;0.60;;;0.60;;
53931;SDS011;39844;52.496;13.482;2022-09-20T16:20:32;0.73;;;0.73;;
53931;SDS011;39844;52.496;13.482;2022-09-20T16:22:57;0.67;;;0.40;;
53931;SDS011;39844;52.496;13.482;2022-09-20T16:25:22;0.37;;;0.37;;
53931;SDS011;39844;52.496;13.482;2022-09-20T16:27:47;0.60;;;0.60;;
53931;SDS011;39844;52.496;13.482;2022-09-20T16:30:13;0.57;;;0.57;;
53931;SDS011;39844;52.496;13.482;2022-09-20T16:32:39;0.57;;;0.57;;
53931;SDS011;39844;52.496;13.482;2022-09-20T16:35:04;0.60;;;0.60;;
53931;SDS011;39844;52.496;13.482;2022-09-20T16:37:31;1.07;;;0.77;;
53931;SDS011;39844;52.496;13.482;2022-09-20T16:39:57;0.90;;;0.70;;
53931;SDS011;39844;52.496;13.482;2022-09-20T16:42:23;0.83;;;0.67;;
53931;SDS011;39844;52.496;13.482;2022-09-20T16:44:48;0.80;;;0.80;;
53931;SDS011;39844;52.496;13.482;2022-09-20T16:47:14;0.70;;;0.70;;
53931;SDS011;39844;52.496;13.482;2022-09-20T16:49:46;0.90;;;0.90;;
53931;SDS011;39844;52.496;13.482;2022-09-20T16:52:12;0.80;;;0.80;;
53931;SDS011;39844;52.496;13.482;2022-09-20T16:54:37;0.70;;;0.70;;
53931;SDS011;39844;52.496;13.482;2022-09-20T16:57:02;0.90;;;0.90;;
53931;SDS011;39844;52.496;13.482;2022-09-20T16:59:29;0.70;;;0.70;;
53931;SDS011;39844;52.496;13.482;2022-09-20T17:01:55;0.80;;;0.80;;
53931;SDS011;39844;52.496;13.482;2022-09-20T17:04:20;2.07;;;0.90;;
53931;SDS011;39844;52.496;13.482;2022-09-20T17:06:46;1.30;;;1.00;;
53931;SDS011;39844;52.496;13.482;2022-09-20T17:09:12;3.13;;;1.00;;
53931;SDS011;39844;52.496;13.482;2022-09-20T17:11:40;1.03;;;0.73;;
53931;SDS011;39844;52.496;13.482;2022-09-20T17:14:10;1.20;;;1.03;;
53931;SDS011;39844;52.496;13.482;2022-09-20T17:16:37;2.20;;;0.93;;
53931;SDS011;39844;52.496;13.482;2022-09-20T17:19:10;0.90;;;0.90;;
53931;SDS011;39844;52.496;13.482;2022-09-20T17:21:38;0.83;;;0.80;;
53931;SDS011;39844;52.496;13.482;2022-09-20T17:24:07;1.83;;;1.40;;
53931;SDS011;39844;52.496;13.482;2022-09-20T17:26:34;0.90;;;0.90;;
53931;SDS011;39844;52.496;13.482;2022-09-20T17:29:03;2.30;;;1.23;;
53931;SDS011;39844;52.496;13.482;2022-09-20T17:31:32;1.00;;;1.00;;
53931;SDS011;39844;52.496;13.482;2022-09-20T17:33:59;1.40;;;1.20;;
53931;SDS011;39844;52.496;13.482;2022-09-20T17:36:30;1.33;;;1.23;;
53931;SDS011;39844;52.496;13.482;2022-09-20T17:38:57;2.77;;;1.20;;
53931;SDS011;39844;52.496;13.482;2022-09-20T17:41:24;1.50;;;1.20;;
53931;SDS011;39844;52.496;13.482;2022-09-20T17:43:54;1.23;;;1.03;;
53931;SDS011;39844;52.496;13.482;2022-09-20T17:46:22;1.30;;;1.30;;
53931;SDS011;39844;52.496;13.482;2022-09-20T17:48:55;1.30;;;1.20;;
53931;SDS011;39844;52.496;13.482;2022-09-20T17:51:25;2.43;;;1.47;;
53931;SDS011;39844;52.496;13.482;2022-09-20T17:53:52;2.10;;;1.67;;
53931;SDS011;39844;52.496;13.482;2022-09-20T17:56:19;1.70;;;1.50;;
53931;SDS011;39844;52.496;13.482;2022-09-20T17:58:47;3.60;;;1.50;;
53931;SDS011;39844;52.496;13.482;2022-09-20T18:01:13;2.30;;;1.50;;
53931;SDS011;39844;52.496;13.482;2022-09-20T18:03:42;1.37;;;1.27;;
53931;SDS011;39844;52.496;13.482;2022-09-20T18:06:20;1.40;;;1.30;;
53931;SDS011;39844;52.496;13.482;2022-09-20T18:08:47;2.60;;;1.57;;
53931;SDS011;39844;52.496;13.482;2022-09-20T18:11:15;2.27;;;1.20;;
53931;SDS011;39844;52.496;13.482;2022-09-20T18:13:42;1.23;;;1.13;;
53931;SDS011;39844;52.496;13.482;2022-09-20T18:16:11;1.50;;;1.40;;
53931;SDS011;39844;52.496;13.482;2022-09-20T18:18:38;1.50;;;1.40;;
53931;SDS011;39844;52.496;13.482;2022-09-20T18:21:23;1.47;;;1.37;;
53931;SDS011;39844;52.496;13.482;2022-09-20T18:23:50;1.10;;;1.10;;
53931;SDS011;39844;52.496;13.482;2022-09-20T18:26:17;2.93;;;1.90;;
53931;SDS011;39844;52.496;13.482;2022-09-20T18:28:57;2.43;;;1.80;;
53931;SDS011;39844;52.496;13.482;2022-09-20T18:31:34;3.93;;;1.50;;
53931;SDS011;39844;52.496;13.482;2022-09-20T18:34:03;1.70;;;1.60;;
53931;SDS011;39844;52.496;13.482;2022-09-20T18:36:30;2.13;;;1.40;;
53931;SDS011;39844;52.496;13.482;2022-09-20T18:39:00;1.70;;;1.60;;
53931;SDS011;39844;52.496;13.482;2022-09-20T18:41:27;1.53;;;1.43;;
53931;SDS011;39844;52.496;13.482;2022-09-20T18:43:55;1.77;;;1.60;;
53931;SDS011;39844;52.496;13.482;2022-09-20T18:46:22;1.80;;;1.70;;
53931;SDS011;39844;52.496;13.482;2022-09-20T18:48:51;2.10;;;1.70;;
53931;SDS011;39844;52.496;13.482;2022-09-20T18:51:21;1.30;;;1.30;;
53931;SDS011;39844;52.496;13.482;2022-09-20T18:53:48;4.23;;;1.90;;
53931;SDS011;39844;52.496;13.482;2022-09-20T18:56:24;2.43;;;1.70;;
53931;SDS011;39844;52.496;13.482;2022-09-20T18:58:53;4.27;;;1.90;;
53931;SDS011;39844;52.496;13.482;2022-09-20T19:12:48;2.93;;;2.13;;
53931;SDS011;39844;52.496;13.482;2022-09-20T19:15:38;2.50;;;2.03;;
53931;SDS011;39844;52.496;13.482;2022-09-20T19:21:05;5.23;;;2.27;;
53931;SDS011;39844;52.496;13.482;2022-09-20T19:23:53;3.63;;;1.90;;
53931;SDS011;39844;52.496;13.482;2022-09-20T19:26:49;1.97;;;1.87;;
53931;SDS011;39844;52.496;13.482;2022-09-20T19:29:21;3.37;;;1.83;;
53931;SDS011;39844;52.496;13.482;2022-09-20T19:31:50;2.83;;;1.73;;
53931;SDS011;39844;52.496;13.482;2022-09-20T19:34:27;2.43;;;2.13;;
53931;SDS011;39844;52.496;13.482;2022-09-20T19:53:10;1.77;;;1.30;;
53931;SDS011;39844;52.496;13.482;2022-09-20T19:55:42;1.43;;;1.33;;
53931;SDS011;39844;52.496;13.482;2022-09-20T19:58:11;1.43;;;1.33;;
53931;SDS011;39844;52.496;13.482;2022-09-20T20:00:37;1.40;;;1.40;;
53931;SDS011;39844;52.496;13.482;2022-09-20T20:03:03;1.77;;;1.60;;
53931;SDS011;39844;52.496;13.482;2022-09-20T20:05:29;2.20;;;1.50;;
53931;SDS011;39844;52.496;13.482;2022-09-20T20:07:58;2.20;;;1.10;;
53931;SDS011;39844;52.496;13.482;2022-09-20T20:10:33;2.30;;;1.77;;
53931;SDS011;39844;52.496;13.482;2022-09-20T20:16:04;1.93;;;1.80;;
53931;SDS011;39844;52.496;13.482;2022-09-20T20:21:15;1.90;;;1.50;;
53931;SDS011;39844;52.496;13.482;2022-09-20T20:26:53;2.67;;;1.30;;
53931;SDS011;39844;52.496;13.482;2022-09-20T20:29:18;1.83;;;1.43;;
53931;SDS011;39844;52.496;13.482;2022-09-20T20:31:43;1.43;;;1.30;;
53931;SDS011;39844;52.496;13.482;2022-09-20T20:34:09;1.70;;;1.60;;
53931;SDS011;39844;52.496;13.482;2022-09-20T20:36:35;1.60;;;1.50;;
53931;SDS011;39844;52.496;13.482;2022-09-20T20:39:01;2.83;;;1.90;;
53931;SDS011;39844;52.496;13.482;2022-09-20T20:41:27;2.90;;;1.80;;
53931;SDS011;39844;52.496;13.482;2022-09-20T20:43:55;2.20;;;1.60;;
53931;SDS011;39844;52.496;13.482;2022-09-20T20:46:21;3.50;;;2.27;;
53931;SDS011;39844;52.496;13.482;2022-09-20T20:48:47;1.60;;;1.50;;
53931;SDS011;39844;52.496;13.482;2022-09-20T20:51:17;3.13;;;1.73;;
53931;SDS011;39844;52.496;13.482;2022-09-20T20:53:44;3.07;;;2.07;;
53931;SDS011;39844;52.496;13.482;2022-09-20T20:56:32;2.80;;;1.60;;